sensor_id;sensor_type;location;lat;lon;timestamp;P1;durP1;ratioP1;P2;durP2;ratioP2
40058;SDS011;25763;49.972;8.568;2022-10-16T00:00:52;17.80;;;16.80;;
40058;SDS011;25763;49.972;8.568;2022-10-16T00:03:17;18.02;;;17.02;;
40058;SDS011;25763;49.972;8.568;2022-10-16T00:05:43;18.17;;;17.10;;
40058;SDS011;25763;49.972;8.568;2022-10-16T00:08:12;18.63;;;17.63;;
40058;SDS011;25763;49.972;8.568;2022-10-16T00:10:38;18.35;;;17.33;;
40058;SDS011;25763;49.972;8.568;2022-10-16T00:13:04;18.30;;;17.30;;
40058;SDS011;25763;49.972;8.568;2022-10-16T00:15:29;19.52;;;18.45;;
40058;SDS011;25763;49.972;8.568;2022-10-16T00:17:57;18.88;;;17.83;;
40058;SDS011;25763;49.972;8.568;2022-10-16T00:20:23;17.52;;;16.55;;
40058;SDS011;25763;49.972;8.568;2022-10-16T00:22:48;18.77;;;17.23;;
40058;SDS011;25763;49.972;8.568;2022-10-16T00:25:13;18.17;;;17.17;;
40058;SDS011;25763;49.972;8.568;2022-10-16T00:27:39;17.10;;;16.13;;
40058;SDS011;25763;49.972;8.568;2022-10-16T00:30:04;17.80;;;16.80;;
40058;SDS011;25763;49.972;8.568;2022-10-16T00:32:30;17.20;;;16.20;;
40058;SDS011;25763;49.972;8.568;2022-10-16T00:34:56;16.80;;;15.77;;
40058;SDS011;25763;49.972;8.568;2022-10-16T00:37:21;16.90;;;15.95;;
40058;SDS011;25763;49.972;8.568;2022-10-16T00:39:46;16.27;;;15.38;;
40058;SDS011;25763;49.972;8.568;2022-10-16T00:42:18;15.65;;;14.68;;
40058;SDS011;25763;49.972;8.568;2022-10-16T00:45:04;15.50;;;14.60;;
40058;SDS011;25763;49.972;8.568;2022-10-16T00:50:08;16.23;;;15.32;;
40058;SDS011;25763;49.972;8.568;2022-10-16T00:52:36;17.05;;;16.10;;
40058;SDS011;25763;49.972;8.568;2022-10-16T00:55:06;16.90;;;15.98;;
40058;SDS011;25763;49.972;8.568;2022-10-16T00:57:34;17.17;;;16.17;;
40058;SDS011;25763;49.972;8.568;2022-10-16T01:00:00;16.60;;;15.68;;
40058;SDS011;25763;49.972;8.568;2022-10-16T01:02:26;16.55;;;15.60;;
40058;SDS011;25763;49.972;8.568;2022-10-16T01:04:52;15.65;;;14.75;;
40058;SDS011;25763;49.972;8.568;2022-10-16T01:13:07;16.65;;;15.75;;
40058;SDS011;25763;49.972;8.568;2022-10-16T01:15:37;19.08;;;17.98;;
40058;SDS011;25763;49.972;8.568;2022-10-16T01:18:16;18.83;;;17.45;;
40058;SDS011;25763;49.972;8.568;2022-10-16T01:20:48;17.42;;;16.48;;
40058;SDS011;25763;49.972;8.568;2022-10-16T01:26:09;19.10;;;18.02;;
40058;SDS011;25763;49.972;8.568;2022-10-16T01:31:41;19.83;;;18.73;;
40058;SDS011;25763;49.972;8.568;2022-10-16T01:36:46;23.55;;;22.27;;
40058;SDS011;25763;49.972;8.568;2022-10-16T01:39:19;22.00;;;20.80;;
40058;SDS011;25763;49.972;8.568;2022-10-16T01:41:49;22.40;;;21.20;;
40058;SDS011;25763;49.972;8.568;2022-10-16T01:44:22;24.17;;;22.88;;
40058;SDS011;25763;49.972;8.568;2022-10-16T01:46:53;25.00;;;23.70;;
40058;SDS011;25763;49.972;8.568;2022-10-16T01:49:20;25.23;;;23.92;;
40058;SDS011;25763;49.972;8.568;2022-10-16T01:51:49;26.40;;;25.00;;
40058;SDS011;25763;49.972;8.568;2022-10-16T01:54:18;26.05;;;24.65;;
40058;SDS011;25763;49.972;8.568;2022-10-16T01:56:45;24.45;;;23.15;;
40058;SDS011;25763;49.972;8.568;2022-10-16T01:59:13;26.75;;;25.35;;
40058;SDS011;25763;49.972;8.568;2022-10-16T02:01:42;26.40;;;25.00;;
40058;SDS011;25763;49.972;8.568;2022-10-16T02:06:59;24.13;;;22.83;;
40058;SDS011;25763;49.972;8.568;2022-10-16T02:09:25;24.25;;;22.95;;
40058;SDS011;25763;49.972;8.568;2022-10-16T02:11:52;23.75;;;22.45;;
40058;SDS011;25763;49.972;8.568;2022-10-16T02:14:20;24.67;;;23.33;;
40058;SDS011;25763;49.972;8.568;2022-10-16T02:16:47;24.15;;;22.85;;
40058;SDS011;25763;49.972;8.568;2022-10-16T02:19:12;25.15;;;23.85;;
40058;SDS011;25763;49.972;8.568;2022-10-16T02:24:11;25.52;;;24.23;;
40058;SDS011;25763;49.972;8.568;2022-10-16T02:29:34;23.38;;;22.15;;
40058;SDS011;25763;49.972;8.568;2022-10-16T02:32:05;23.80;;;22.50;;
40058;SDS011;25763;49.972;8.568;2022-10-16T02:34:32;23.75;;;22.45;;
40058;SDS011;25763;49.972;8.568;2022-10-16T02:36:58;24.33;;;23.02;;
40058;SDS011;25763;49.972;8.568;2022-10-16T02:39:27;24.25;;;22.95;;
40058;SDS011;25763;49.972;8.568;2022-10-16T02:41:54;24.83;;;23.52;;
40058;SDS011;25763;49.972;8.568;2022-10-16T02:44:19;25.85;;;24.35;;
40058;SDS011;25763;49.972;8.568;2022-10-16T02:46:45;24.92;;;23.63;;
40058;SDS011;25763;49.972;8.568;2022-10-16T02:49:10;25.85;;;24.48;;
40058;SDS011;25763;49.972;8.568;2022-10-16T02:51:36;25.08;;;23.77;;
40058;SDS011;25763;49.972;8.568;2022-10-16T02:54:01;26.45;;;25.05;;
40058;SDS011;25763;49.972;8.568;2022-10-16T02:56:27;25.98;;;24.58;;
40058;SDS011;25763;49.972;8.568;2022-10-16T02:58:52;26.58;;;25.17;;
40058;SDS011;25763;49.972;8.568;2022-10-16T03:01:18;26.73;;;25.33;;
40058;SDS011;25763;49.972;8.568;2022-10-16T03:03:43;26.38;;;24.90;;
40058;SDS011;25763;49.972;8.568;2022-10-16T03:06:09;27.17;;;25.77;;
40058;SDS011;25763;49.972;8.568;2022-10-16T03:08:34;29.38;;;27.88;;
40058;SDS011;25763;49.972;8.568;2022-10-16T03:10:59;25.75;;;24.35;;
40058;SDS011;25763;49.972;8.568;2022-10-16T03:13:25;27.42;;;26.02;;
40058;SDS011;25763;49.972;8.568;2022-10-16T03:15:50;25.67;;;24.33;;
40058;SDS011;25763;49.972;8.568;2022-10-16T03:18:15;27.98;;;26.52;;
40058;SDS011;25763;49.972;8.568;2022-10-16T03:20:42;25.83;;;24.42;;
40058;SDS011;25763;49.972;8.568;2022-10-16T03:23:08;28.65;;;27.15;;
40058;SDS011;25763;49.972;8.568;2022-10-16T03:25:33;29.70;;;28.10;;
40058;SDS011;25763;49.972;8.568;2022-10-16T03:27:59;26.77;;;25.38;;
40058;SDS011;25763;49.972;8.568;2022-10-16T03:30:24;27.08;;;25.63;;
40058;SDS011;25763;49.972;8.568;2022-10-16T03:32:49;25.10;;;23.80;;
40058;SDS011;25763;49.972;8.568;2022-10-16T03:35:19;28.15;;;26.67;;
40058;SDS011;25763;49.972;8.568;2022-10-16T03:37:45;27.30;;;25.88;;
40058;SDS011;25763;49.972;8.568;2022-10-16T03:40:10;28.50;;;27.00;;
40058;SDS011;25763;49.972;8.568;2022-10-16T03:42:36;26.40;;;25.00;;
40058;SDS011;25763;49.972;8.568;2022-10-16T03:45:01;25.85;;;24.45;;
40058;SDS011;25763;49.972;8.568;2022-10-16T03:47:27;27.30;;;25.85;;
40058;SDS011;25763;49.972;8.568;2022-10-16T03:49:52;27.30;;;25.85;;
40058;SDS011;25763;49.972;8.568;2022-10-16T03:52:17;30.17;;;28.60;;
40058;SDS011;25763;49.972;8.568;2022-10-16T03:54:43;26.67;;;25.27;;
40058;SDS011;25763;49.972;8.568;2022-10-16T03:57:08;29.80;;;28.20;;
40058;SDS011;25763;49.972;8.568;2022-10-16T03:59:33;28.10;;;26.60;;
40058;SDS011;25763;49.972;8.568;2022-10-16T04:01:59;27.73;;;26.27;;
40058;SDS011;25763;49.972;8.568;2022-10-16T04:04:24;28.45;;;26.98;;
40058;SDS011;25763;49.972;8.568;2022-10-16T04:06:50;28.10;;;26.65;;
40058;SDS011;25763;49.972;8.568;2022-10-16T04:09:15;25.77;;;24.42;;
40058;SDS011;25763;49.972;8.568;2022-10-16T04:11:41;26.25;;;24.85;;
40058;SDS011;25763;49.972;8.568;2022-10-16T04:14:06;27.38;;;25.95;;
40058;SDS011;25763;49.972;8.568;2022-10-16T04:16:31;28.50;;;27.00;;
40058;SDS011;25763;49.972;8.568;2022-10-16T04:18:57;26.88;;;25.45;;
40058;SDS011;25763;49.972;8.568;2022-10-16T04:21:22;27.08;;;25.67;;
40058;SDS011;25763;49.972;8.568;2022-10-16T04:23:48;27.08;;;25.67;;
40058;SDS011;25763;49.972;8.568;2022-10-16T04:26:14;25.45;;;24.05;;
40058;SDS011;25763;49.972;8.568;2022-10-16T04:28:39;26.35;;;24.88;;
40058;SDS011;25763;49.972;8.568;2022-10-16T04:31:05;23.05;;;21.67;;
40058;SDS011;25763;49.972;8.568;2022-10-16T04:33:31;24.65;;;23.35;;
40058;SDS011;25763;49.972;8.568;2022-10-16T04:35:57;25.73;;;24.33;;
40058;SDS011;25763;49.972;8.568;2022-10-16T04:38:24;27.95;;;26.48;;
40058;SDS011;25763;49.972;8.568;2022-10-16T04:40:50;28.50;;;27.02;;
40058;SDS011;25763;49.972;8.568;2022-10-16T04:43:15;26.63;;;25.23;;
40058;SDS011;25763;49.972;8.568;2022-10-16T04:45:40;25.98;;;24.63;;
40058;SDS011;25763;49.972;8.568;2022-10-16T04:48:06;26.60;;;25.20;;
40058;SDS011;25763;49.972;8.568;2022-10-16T04:50:31;24.95;;;23.65;;
40058;SDS011;25763;49.972;8.568;2022-10-16T04:52:57;24.92;;;23.63;;
40058;SDS011;25763;49.972;8.568;2022-10-16T04:55:22;24.33;;;23.02;;
40058;SDS011;25763;49.972;8.568;2022-10-16T04:57:47;23.40;;;22.17;;
40058;SDS011;25763;49.972;8.568;2022-10-16T05:00:13;23.67;;;22.40;;
40058;SDS011;25763;49.972;8.568;2022-10-16T05:02:38;25.33;;;23.98;;
40058;SDS011;25763;49.972;8.568;2022-10-16T05:05:04;24.77;;;23.48;;
40058;SDS011;25763;49.972;8.568;2022-10-16T05:07:30;21.52;;;20.38;;
40058;SDS011;25763;49.972;8.568;2022-10-16T05:09:55;22.58;;;21.38;;
40058;SDS011;25763;49.972;8.568;2022-10-16T05:12:21;21.92;;;20.65;;
40058;SDS011;25763;49.972;8.568;2022-10-16T05:14:46;20.45;;;19.35;;
40058;SDS011;25763;49.972;8.568;2022-10-16T05:17:11;22.05;;;20.88;;
40058;SDS011;25763;49.972;8.568;2022-10-16T05:19:37;21.23;;;20.05;;
40058;SDS011;25763;49.972;8.568;2022-10-16T05:22:02;20.17;;;19.08;;
40058;SDS011;25763;49.972;8.568;2022-10-16T05:24:28;20.60;;;19.48;;
40058;SDS011;25763;49.972;8.568;2022-10-16T05:26:53;21.92;;;20.73;;
40058;SDS011;25763;49.972;8.568;2022-10-16T05:29:19;21.45;;;20.30;;
40058;SDS011;25763;49.972;8.568;2022-10-16T05:31:44;24.63;;;23.33;;
40058;SDS011;25763;49.972;8.568;2022-10-16T05:34:10;23.77;;;22.50;;
40058;SDS011;25763;49.972;8.568;2022-10-16T05:36:35;24.10;;;22.70;;
40058;SDS011;25763;49.972;8.568;2022-10-16T05:39:01;22.33;;;21.13;;
40058;SDS011;25763;49.972;8.568;2022-10-16T05:41:26;22.13;;;20.92;;
40058;SDS011;25763;49.972;8.568;2022-10-16T05:43:52;25.15;;;23.80;;
40058;SDS011;25763;49.972;8.568;2022-10-16T05:46:18;23.25;;;22.02;;
40058;SDS011;25763;49.972;8.568;2022-10-16T05:48:44;23.88;;;22.58;;
40058;SDS011;25763;49.972;8.568;2022-10-16T05:51:10;22.20;;;20.98;;
40058;SDS011;25763;49.972;8.568;2022-10-16T05:53:38;23.63;;;22.27;;
40058;SDS011;25763;49.972;8.568;2022-10-16T05:56:05;24.63;;;23.30;;
40058;SDS011;25763;49.972;8.568;2022-10-16T05:58:32;24.48;;;23.17;;
40058;SDS011;25763;49.972;8.568;2022-10-16T06:01:04;23.02;;;21.80;;
40058;SDS011;25763;49.972;8.568;2022-10-16T06:03:30;25.23;;;23.92;;
40058;SDS011;25763;49.972;8.568;2022-10-16T06:05:56;24.20;;;22.90;;
40058;SDS011;25763;49.972;8.568;2022-10-16T06:08:22;25.45;;;24.10;;
40058;SDS011;25763;49.972;8.568;2022-10-16T06:10:48;27.00;;;25.52;;
40058;SDS011;25763;49.972;8.568;2022-10-16T06:13:24;23.08;;;21.77;;
40058;SDS011;25763;49.972;8.568;2022-10-16T06:15:50;24.73;;;23.42;;
40058;SDS011;25763;49.972;8.568;2022-10-16T06:18:15;25.30;;;24.00;;
40058;SDS011;25763;49.972;8.568;2022-10-16T06:20:40;24.48;;;23.17;;
40058;SDS011;25763;49.972;8.568;2022-10-16T06:23:06;25.88;;;24.48;;
40058;SDS011;25763;49.972;8.568;2022-10-16T06:25:31;25.33;;;23.95;;
40058;SDS011;25763;49.972;8.568;2022-10-16T06:27:57;26.80;;;25.40;;
40058;SDS011;25763;49.972;8.568;2022-10-16T06:30:22;25.42;;;24.10;;
40058;SDS011;25763;49.972;8.568;2022-10-16T06:32:47;24.42;;;23.13;;
40058;SDS011;25763;49.972;8.568;2022-10-16T06:35:13;27.75;;;26.27;;
40058;SDS011;25763;49.972;8.568;2022-10-16T06:37:38;22.85;;;21.65;;
40058;SDS011;25763;49.972;8.568;2022-10-16T06:40:04;25.30;;;23.90;;
40058;SDS011;25763;49.972;8.568;2022-10-16T06:42:29;26.00;;;24.63;;
40058;SDS011;25763;49.972;8.568;2022-10-16T06:44:55;22.63;;;21.42;;
40058;SDS011;25763;49.972;8.568;2022-10-16T06:47:20;23.80;;;22.50;;
40058;SDS011;25763;49.972;8.568;2022-10-16T06:49:46;24.75;;;23.35;;
40058;SDS011;25763;49.972;8.568;2022-10-16T06:52:11;25.40;;;24.05;;
40058;SDS011;25763;49.972;8.568;2022-10-16T06:54:36;23.88;;;22.58;;
40058;SDS011;25763;49.972;8.568;2022-10-16T06:57:02;27.10;;;25.70;;
40058;SDS011;25763;49.972;8.568;2022-10-16T06:59:27;27.65;;;26.15;;
40058;SDS011;25763;49.972;8.568;2022-10-16T07:01:53;25.60;;;24.23;;
40058;SDS011;25763;49.972;8.568;2022-10-16T07:04:18;29.40;;;27.83;;
40058;SDS011;25763;49.972;8.568;2022-10-16T07:06:43;25.20;;;23.85;;
40058;SDS011;25763;49.972;8.568;2022-10-16T07:09:09;27.80;;;26.30;;
40058;SDS011;25763;49.972;8.568;2022-10-16T07:11:38;25.63;;;24.25;;
40058;SDS011;25763;49.972;8.568;2022-10-16T07:14:04;26.55;;;25.15;;
40058;SDS011;25763;49.972;8.568;2022-10-16T07:16:34;24.60;;;23.30;;
40058;SDS011;25763;49.972;8.568;2022-10-16T07:19:00;24.98;;;23.60;;
40058;SDS011;25763;49.972;8.568;2022-10-16T07:21:28;22.85;;;21.60;;
40058;SDS011;25763;49.972;8.568;2022-10-16T07:23:57;25.02;;;23.63;;
40058;SDS011;25763;49.972;8.568;2022-10-16T07:26:24;23.95;;;22.65;;
40058;SDS011;25763;49.972;8.568;2022-10-16T07:28:50;23.98;;;22.67;;
40058;SDS011;25763;49.972;8.568;2022-10-16T07:31:16;24.08;;;22.77;;
40058;SDS011;25763;49.972;8.568;2022-10-16T07:33:44;23.17;;;21.80;;
40058;SDS011;25763;49.972;8.568;2022-10-16T07:36:10;21.95;;;20.63;;
40058;SDS011;25763;49.972;8.568;2022-10-16T07:38:37;24.02;;;22.55;;
40058;SDS011;25763;49.972;8.568;2022-10-16T07:41:04;23.95;;;22.65;;
40058;SDS011;25763;49.972;8.568;2022-10-16T07:43:31;23.30;;;22.00;;
40058;SDS011;25763;49.972;8.568;2022-10-16T07:45:57;23.17;;;21.92;;
40058;SDS011;25763;49.972;8.568;2022-10-16T07:48:23;24.13;;;22.75;;
40058;SDS011;25763;49.972;8.568;2022-10-16T07:50:51;24.50;;;23.20;;
40058;SDS011;25763;49.972;8.568;2022-10-16T07:53:16;23.83;;;22.52;;
40058;SDS011;25763;49.972;8.568;2022-10-16T07:55:42;24.42;;;23.13;;
40058;SDS011;25763;49.972;8.568;2022-10-16T07:58:07;24.02;;;22.73;;
40058;SDS011;25763;49.972;8.568;2022-10-16T08:00:33;25.50;;;24.10;;
40058;SDS011;25763;49.972;8.568;2022-10-16T08:02:58;25.23;;;23.92;;
40058;SDS011;25763;49.972;8.568;2022-10-16T08:05:30;22.45;;;21.25;;
40058;SDS011;25763;49.972;8.568;2022-10-16T08:07:57;23.83;;;22.52;;
40058;SDS011;25763;49.972;8.568;2022-10-16T08:10:23;24.58;;;23.27;;
40058;SDS011;25763;49.972;8.568;2022-10-16T08:12:51;24.88;;;23.23;;
40058;SDS011;25763;49.972;8.568;2022-10-16T08:15:17;22.45;;;21.25;;
40058;SDS011;25763;49.972;8.568;2022-10-16T08:17:43;23.15;;;21.83;;
40058;SDS011;25763;49.972;8.568;2022-10-16T08:20:09;24.00;;;22.70;;
40058;SDS011;25763;49.972;8.568;2022-10-16T08:22:35;25.73;;;24.33;;
40058;SDS011;25763;49.972;8.568;2022-10-16T08:25:00;25.20;;;23.80;;
40058;SDS011;25763;49.972;8.568;2022-10-16T08:27:30;24.85;;;23.55;;
40058;SDS011;25763;49.972;8.568;2022-10-16T08:32:22;19.90;;;18.80;;
40058;SDS011;25763;49.972;8.568;2022-10-16T08:34:47;21.67;;;20.48;;
40058;SDS011;25763;49.972;8.568;2022-10-16T08:37:12;22.40;;;21.20;;
40058;SDS011;25763;49.972;8.568;2022-10-16T08:39:38;23.63;;;22.30;;
40058;SDS011;25763;49.972;8.568;2022-10-16T08:45:23;21.42;;;20.23;;
40058;SDS011;25763;49.972;8.568;2022-10-16T08:50:45;23.98;;;22.67;;
40058;SDS011;25763;49.972;8.568;2022-10-16T08:53:18;24.90;;;23.30;;
40058;SDS011;25763;49.972;8.568;2022-10-16T08:55:50;23.67;;;22.38;;
40058;SDS011;25763;49.972;8.568;2022-10-16T08:58:21;24.85;;;23.52;;
40058;SDS011;25763;49.972;8.568;2022-10-16T09:00:54;22.90;;;21.60;;
40058;SDS011;25763;49.972;8.568;2022-10-16T09:11:22;22.88;;;21.60;;
40058;SDS011;25763;49.972;8.568;2022-10-16T09:13:58;22.08;;;20.88;;
40058;SDS011;25763;49.972;8.568;2022-10-16T09:16:34;24.42;;;22.67;;
40058;SDS011;25763;49.972;8.568;2022-10-16T09:19:12;24.47;;;23.07;;
40058;SDS011;25763;49.972;8.568;2022-10-16T09:21:44;22.35;;;21.05;;
40058;SDS011;25763;49.972;8.568;2022-10-16T09:24:15;22.52;;;21.30;;
40058;SDS011;25763;49.972;8.568;2022-10-16T09:26:43;22.10;;;20.90;;
40058;SDS011;25763;49.972;8.568;2022-10-16T09:29:13;21.33;;;20.13;;
40058;SDS011;25763;49.972;8.568;2022-10-16T09:31:39;20.65;;;19.55;;
40058;SDS011;25763;49.972;8.568;2022-10-16T09:34:08;18.35;;;17.25;;
40058;SDS011;25763;49.972;8.568;2022-10-16T09:36:55;19.95;;;18.83;;
40058;SDS011;25763;49.972;8.568;2022-10-16T09:39:22;21.13;;;19.77;;
40058;SDS011;25763;49.972;8.568;2022-10-16T09:41:47;21.00;;;19.80;;
40058;SDS011;25763;49.972;8.568;2022-10-16T09:46:47;16.75;;;15.75;;
40058;SDS011;25763;49.972;8.568;2022-10-16T09:49:22;15.45;;;14.55;;
40058;SDS011;25763;49.972;8.568;2022-10-16T09:51:49;14.93;;;14.02;;
40058;SDS011;25763;49.972;8.568;2022-10-16T09:54:19;15.68;;;14.77;;
40058;SDS011;25763;49.972;8.568;2022-10-16T09:56:46;13.25;;;12.32;;
40058;SDS011;25763;49.972;8.568;2022-10-16T09:59:20;11.43;;;10.63;;
40058;SDS011;25763;49.972;8.568;2022-10-16T10:01:49;10.23;;;9.63;;
40058;SDS011;25763;49.972;8.568;2022-10-16T10:04:20;9.30;;;8.70;;
40058;SDS011;25763;49.972;8.568;2022-10-16T10:06:53;10.90;;;10.20;;
40058;SDS011;25763;49.972;8.568;2022-10-16T10:09:34;9.13;;;8.52;;
40058;SDS011;25763;49.972;8.568;2022-10-16T10:12:04;9.93;;;9.32;;
40058;SDS011;25763;49.972;8.568;2022-10-16T10:17:22;10.90;;;10.20;;
40058;SDS011;25763;49.972;8.568;2022-10-16T10:19:53;11.15;;;10.45;;
40058;SDS011;25763;49.972;8.568;2022-10-16T10:27:38;13.88;;;12.88;;
40058;SDS011;25763;49.972;8.568;2022-10-16T10:30:17;12.02;;;11.25;;
40058;SDS011;25763;49.972;8.568;2022-10-16T10:35:18;15.20;;;13.85;;
40058;SDS011;25763;49.972;8.568;2022-10-16T10:38:01;11.70;;;10.95;;
40058;SDS011;25763;49.972;8.568;2022-10-16T10:41:10;10.32;;;9.63;;
40058;SDS011;25763;49.972;8.568;2022-10-16T10:44:03;10.02;;;9.38;;
40058;SDS011;25763;49.972;8.568;2022-10-16T10:46:41;11.02;;;10.32;;
40058;SDS011;25763;49.972;8.568;2022-10-16T10:58:08;13.15;;;12.35;;
40058;SDS011;25763;49.972;8.568;2022-10-16T11:03:30;46.88;;;44.47;;
40058;SDS011;25763;49.972;8.568;2022-10-16T11:08:50;52.60;;;49.75;;
40058;SDS011;25763;49.972;8.568;2022-10-16T11:14:00;44.22;;;41.97;;
40058;SDS011;25763;49.972;8.568;2022-10-16T11:16:58;45.15;;;42.85;;
40058;SDS011;25763;49.972;8.568;2022-10-16T11:19:34;36.95;;;35.03;;
40058;SDS011;25763;49.972;8.568;2022-10-16T11:27:14;47.28;;;44.45;;
40058;SDS011;25763;49.972;8.568;2022-10-16T11:29:48;39.83;;;37.75;;
40058;SDS011;25763;49.972;8.568;2022-10-16T11:32:20;37.92;;;35.95;;
40058;SDS011;25763;49.972;8.568;2022-10-16T11:35:00;39.03;;;36.72;;
40058;SDS011;25763;49.972;8.568;2022-10-16T11:37:35;37.35;;;35.42;;
40058;SDS011;25763;49.972;8.568;2022-10-16T11:40:27;28.20;;;26.70;;
40058;SDS011;25763;49.972;8.568;2022-10-16T11:43:15;32.63;;;30.95;;
40058;SDS011;25763;49.972;8.568;2022-10-16T11:45:43;32.00;;;30.35;;
40058;SDS011;25763;49.972;8.568;2022-10-16T11:54:02;30.73;;;29.13;;
40058;SDS011;25763;49.972;8.568;2022-10-16T11:56:41;44.15;;;41.90;;
40058;SDS011;25763;49.972;8.568;2022-10-16T12:07:19;23.13;;;21.90;;
40058;SDS011;25763;49.972;8.568;2022-10-16T12:09:52;19.88;;;18.77;;
40058;SDS011;25763;49.972;8.568;2022-10-16T12:12:25;21.77;;;20.58;;
40058;SDS011;25763;49.972;8.568;2022-10-16T12:15:02;24.75;;;23.42;;
40058;SDS011;25763;49.972;8.568;2022-10-16T12:17:48;19.10;;;18.08;;
40058;SDS011;25763;49.972;8.568;2022-10-16T12:20:19;26.98;;;25.52;;
40058;SDS011;25763;49.972;8.568;2022-10-16T12:23:06;41.63;;;39.42;;
40058;SDS011;25763;49.972;8.568;2022-10-16T12:25:33;35.70;;;33.72;;
40058;SDS011;25763;49.972;8.568;2022-10-16T12:28:04;47.80;;;45.30;;
40058;SDS011;25763;49.972;8.568;2022-10-16T12:30:35;51.83;;;48.88;;
40058;SDS011;25763;49.972;8.568;2022-10-16T12:33:03;59.90;;;56.88;;
40058;SDS011;25763;49.972;8.568;2022-10-16T12:35:31;67.38;;;63.45;;
40058;SDS011;25763;49.972;8.568;2022-10-16T12:38:45;43.47;;;41.17;;
40058;SDS011;25763;49.972;8.568;2022-10-16T12:41:05;22.70;;;21.50;;
40058;SDS011;25763;49.972;8.568;2022-10-16T12:43:40;21.67;;;20.33;;
40058;SDS011;25763;49.972;8.568;2022-10-16T12:48:33;21.05;;;19.95;;
40058;SDS011;25763;49.972;8.568;2022-10-16T12:51:09;18.95;;;17.92;;
40058;SDS011;25763;49.972;8.568;2022-10-16T12:53:57;18.52;;;17.52;;
40058;SDS011;25763;49.972;8.568;2022-10-16T12:56:35;19.73;;;18.63;;
40058;SDS011;25763;49.972;8.568;2022-10-16T12:59:14;17.48;;;16.50;;
40058;SDS011;25763;49.972;8.568;2022-10-16T13:01:56;20.23;;;19.13;;
40058;SDS011;25763;49.972;8.568;2022-10-16T13:10:35;22.63;;;21.35;;
40058;SDS011;25763;49.972;8.568;2022-10-16T13:21:43;18.48;;;17.48;;
40058;SDS011;25763;49.972;8.568;2022-10-16T13:24:20;18.52;;;17.50;;
40058;SDS011;25763;49.972;8.568;2022-10-16T13:26:57;18.55;;;17.55;;
40058;SDS011;25763;49.972;8.568;2022-10-16T13:29:30;20.10;;;18.92;;
40058;SDS011;25763;49.972;8.568;2022-10-16T13:31:57;30.15;;;28.50;;
40058;SDS011;25763;49.972;8.568;2022-10-16T13:34:25;26.70;;;25.27;;
40058;SDS011;25763;49.972;8.568;2022-10-16T13:36:52;25.08;;;23.75;;
40058;SDS011;25763;49.972;8.568;2022-10-16T13:39:25;18.67;;;17.63;;
40058;SDS011;25763;49.972;8.568;2022-10-16T13:42:03;23.85;;;22.52;;
40058;SDS011;25763;49.972;8.568;2022-10-16T13:44:34;21.02;;;19.90;;
40058;SDS011;25763;49.972;8.568;2022-10-16T13:47:04;16.77;;;15.88;;
40058;SDS011;25763;49.972;8.568;2022-10-16T13:49:29;19.17;;;18.10;;
40058;SDS011;25763;49.972;8.568;2022-10-16T13:51:59;16.90;;;16.00;;
40058;SDS011;25763;49.972;8.568;2022-10-16T13:54:25;17.57;;;16.57;;
40058;SDS011;25763;49.972;8.568;2022-10-16T13:56:52;17.40;;;16.40;;
40058;SDS011;25763;49.972;8.568;2022-10-16T13:59:27;17.92;;;16.92;;
40058;SDS011;25763;49.972;8.568;2022-10-16T14:01:58;17.48;;;16.48;;
40058;SDS011;25763;49.972;8.568;2022-10-16T14:04:30;18.10;;;17.10;;
40058;SDS011;25763;49.972;8.568;2022-10-16T14:06:57;18.92;;;17.88;;
40058;SDS011;25763;49.972;8.568;2022-10-16T14:11:53;17.65;;;16.65;;
40058;SDS011;25763;49.972;8.568;2022-10-16T14:14:39;17.88;;;16.88;;
40058;SDS011;25763;49.972;8.568;2022-10-16T14:17:13;20.80;;;19.65;;
40058;SDS011;25763;49.972;8.568;2022-10-16T14:19:39;24.63;;;23.25;;
40058;SDS011;25763;49.972;8.568;2022-10-16T14:22:26;24.98;;;23.65;;
40058;SDS011;25763;49.972;8.568;2022-10-16T14:25:02;27.80;;;26.33;;
40058;SDS011;25763;49.972;8.568;2022-10-16T14:28:30;24.38;;;23.08;;
40058;SDS011;25763;49.972;8.568;2022-10-16T14:30:48;21.33;;;20.15;;
40058;SDS011;25763;49.972;8.568;2022-10-16T14:33:21;25.15;;;23.63;;
40058;SDS011;25763;49.972;8.568;2022-10-16T14:36:05;19.77;;;18.67;;
40058;SDS011;25763;49.972;8.568;2022-10-16T14:38:38;17.67;;;16.60;;
40058;SDS011;25763;49.972;8.568;2022-10-16T14:41:05;21.25;;;20.02;;
40058;SDS011;25763;49.972;8.568;2022-10-16T14:43:32;21.17;;;19.98;;
40058;SDS011;25763;49.972;8.568;2022-10-16T14:46:03;21.70;;;20.48;;
40058;SDS011;25763;49.972;8.568;2022-10-16T14:48:31;22.20;;;20.80;;
40058;SDS011;25763;49.972;8.568;2022-10-16T14:50:57;24.00;;;22.70;;
40058;SDS011;25763;49.972;8.568;2022-10-16T14:53:23;24.70;;;23.02;;
40058;SDS011;25763;49.972;8.568;2022-10-16T14:55:48;24.10;;;22.80;;
40058;SDS011;25763;49.972;8.568;2022-10-16T14:58:15;24.45;;;22.65;;
40058;SDS011;25763;49.972;8.568;2022-10-16T15:00:43;23.40;;;22.02;;
40058;SDS011;25763;49.972;8.568;2022-10-16T15:03:08;24.83;;;23.35;;
40058;SDS011;25763;49.972;8.568;2022-10-16T15:05:33;27.95;;;26.25;;
40058;SDS011;25763;49.972;8.568;2022-10-16T15:07:59;29.02;;;27.45;;
40058;SDS011;25763;49.972;8.568;2022-10-16T15:10:25;31.20;;;29.52;;
40058;SDS011;25763;49.972;8.568;2022-10-16T15:12:52;25.33;;;23.92;;
40058;SDS011;25763;49.972;8.568;2022-10-16T15:17:52;30.13;;;28.55;;
40058;SDS011;25763;49.972;8.568;2022-10-16T15:20:21;28.90;;;27.38;;
40058;SDS011;25763;49.972;8.568;2022-10-16T15:22:47;33.15;;;31.42;;
40058;SDS011;25763;49.972;8.568;2022-10-16T15:25:27;30.98;;;29.27;;
40058;SDS011;25763;49.972;8.568;2022-10-16T15:28:13;27.88;;;26.40;;
40058;SDS011;25763;49.972;8.568;2022-10-16T15:30:40;27.60;;;26.13;;
40058;SDS011;25763;49.972;8.568;2022-10-16T15:33:10;26.33;;;24.95;;
40058;SDS011;25763;49.972;8.568;2022-10-16T15:35:38;28.25;;;26.77;;
40058;SDS011;25763;49.972;8.568;2022-10-16T15:38:04;32.95;;;31.05;;
40058;SDS011;25763;49.972;8.568;2022-10-16T15:40:29;30.58;;;28.98;;
40058;SDS011;25763;49.972;8.568;2022-10-16T15:42:55;36.92;;;35.03;;
40058;SDS011;25763;49.972;8.568;2022-10-16T15:45:20;33.30;;;31.55;;
40058;SDS011;25763;49.972;8.568;2022-10-16T15:47:46;32.13;;;30.48;;
40058;SDS011;25763;49.972;8.568;2022-10-16T15:50:12;36.05;;;34.20;;
40058;SDS011;25763;49.972;8.568;2022-10-16T15:52:39;31.83;;;30.13;;
40058;SDS011;25763;49.972;8.568;2022-10-16T15:55:06;32.63;;;30.85;;
40058;SDS011;25763;49.972;8.568;2022-10-16T15:57:34;32.95;;;31.25;;
40058;SDS011;25763;49.972;8.568;2022-10-16T16:00:00;34.30;;;32.50;;
40058;SDS011;25763;49.972;8.568;2022-10-16T16:02:25;35.28;;;33.42;;
40058;SDS011;25763;49.972;8.568;2022-10-16T16:04:51;33.25;;;31.17;;
40058;SDS011;25763;49.972;8.568;2022-10-16T16:07:17;34.90;;;33.10;;
40058;SDS011;25763;49.972;8.568;2022-10-16T16:09:42;28.95;;;27.42;;
40058;SDS011;25763;49.972;8.568;2022-10-16T16:12:09;28.30;;;26.77;;
40058;SDS011;25763;49.972;8.568;2022-10-16T16:14:35;27.08;;;25.65;;
40058;SDS011;25763;49.972;8.568;2022-10-16T16:17:01;27.50;;;26.02;;
40058;SDS011;25763;49.972;8.568;2022-10-16T16:19:27;27.10;;;25.67;;
40058;SDS011;25763;49.972;8.568;2022-10-16T16:21:52;25.08;;;23.73;;
40058;SDS011;25763;49.972;8.568;2022-10-16T16:24:17;23.83;;;22.23;;